Time;durP1;ratioP1;P1;durP2;ratioP2;P2;SDS_P1;SDS_P2;PMS_P1;PMS_P2;Temp;Humidity;BMP_temperature;BMP_pressure;BME280_temperature;BME280_humidity;BME280_pressure;Samples;Min_cycle;Max_cycle;Signal;HPM_P1;HPM_P2
2023/10/06 00:02:30;;;;;;;8.88;3.40;;;;;;;11.78;100.00;102117.31;5020959;28;20171;-69
2023/10/06 00:04:55;;;;;;;5.65;3.00;;;;;;;11.79;100.00;102126.84;5018505;28;20044;-69
2023/10/06 00:07:23;;;;;;;6.18;3.28;;;;;;;11.82;100.00;102123.41;5022062;28;20069;-70
2023/10/06 00:09:48;;;;;;;6.65;2.95;;;;;;;11.80;100.00;102120.81;5025552;28;20099;-69
2023/10/06 00:12:16;;;;;;;6.43;2.55;;;;;;;11.79;100.00;102124.25;5026306;28;20634;-69
2023/10/06 00:14:48;;;;;;;6.57;3.22;;;;;;;11.76;100.00;102118.19;5022748;28;20033;-69
2023/10/06 00:17:18;;;;;;;6.55;3.40;;;;;;;11.74;100.00;102112.13;5020233;28;20587;-69
2023/10/06 00:19:44;;;;;;;7.07;3.25;;;;;;;11.73;100.00;102118.16;5021151;28;20053;-69
2023/10/06 00:22:18;;;;;;;5.30;2.83;;;;;;;11.73;100.00;102118.16;5018706;28;20052;-69
2023/10/06 00:24:50;;;;;;;7.18;2.65;;;;;;;11.72;100.00;102113.84;5025974;28;20041;-69
2023/10/06 00:27:18;;;;;;;10.23;3.60;;;;;;;11.71;100.00;102112.09;5015752;28;20068;-69
2023/10/06 00:29:47;;;;;;;7.90;3.00;;;;;;;11.71;100.00;102112.09;5026694;28;20026;-69
2023/10/06 00:32:22;;;;;;;5.20;3.03;;;;;;;11.72;100.00;102117.28;5019290;28;20374;-69
2023/10/06 00:34:49;;;;;;;7.95;2.97;;;;;;;11.71;100.00;102120.75;5032299;28;20052;-69
2023/10/06 00:37:16;;;;;;;8.48;3.33;;;;;;;11.71;100.00;102117.28;5018591;28;20161;-69
2023/10/06 00:39:42;;;;;;;4.28;2.78;;;;;;;11.69;100.00;102121.59;5027827;28;20079;-64
2023/10/06 00:42:08;;;;;;;8.50;3.03;;;;;;;11.68;100.00;102117.25;5024713;28;20502;-63
2023/10/06 00:44:35;;;;;;;7.43;2.83;;;;;;;11.65;100.00;102118.09;5016158;28;20281;-63
2023/10/06 00:47:05;;;;;;;10.07;3.42;;;;;;;11.63;100.00;102111.19;5015674;28;20623;-63
2023/10/06 00:49:32;;;;;;;7.28;2.80;;;;;;;11.61;100.00;102105.09;5026244;28;20051;-63
2023/10/06 00:51:59;;;;;;;10.60;2.63;;;;;;;11.59;100.00;102106.81;5025402;28;20081;-63
2023/10/06 00:54:25;;;;;;;5.30;2.55;;;;;;;11.57;100.00;102101.63;5023618;28;20646;-63
2023/10/06 00:56:57;;;;;;;4.72;2.75;;;;;;;11.54;100.00;102104.19;5023559;28;20531;-63
2023/10/06 00:59:23;;;;;;;7.72;3.38;;;;;;;11.54;100.00;102105.91;5023688;28;20064;-63
2023/10/06 01:01:49;;;;;;;8.23;3.22;;;;;;;11.53;100.00;102106.75;5016857;28;20037;-63
2023/10/06 01:04:16;;;;;;;4.82;2.40;;;;;;;11.46;100.00;102111.00;5016063;28;20056;-64
2023/10/06 01:06:42;;;;;;;7.25;2.72;;;;;;;11.38;100.00;102104.84;5025362;28;20041;-63
2023/10/06 01:09:22;;;;;;;8.45;2.92;;;;;;;11.35;100.00;102105.69;5027739;28;20032;-63
2023/10/06 01:11:54;;;;;;;4.75;3.10;;;;;;;11.32;100.00;102094.44;5030389;28;20843;-63
2023/10/06 01:14:25;;;;;;;7.97;3.08;;;;;;;11.29;100.00;102097.88;5022281;28;20045;-63
2023/10/06 01:16:50;;;;;;;8.25;4.10;;;;;;;11.28;100.00;102093.53;5028894;28;20646;-63
2023/10/06 01:19:27;;;;;;;8.75;3.58;;;;;;;11.26;100.00;102091.78;5019123;28;20037;-64
2023/10/06 01:21:55;;;;;;;6.57;2.88;;;;;;;11.23;100.00;102084.88;5013052;28;20408;-63
2023/10/06 01:24:25;;;;;;;6.75;2.78;;;;;;;11.20;100.00;102089.16;5021759;28;20186;-63
2023/10/06 01:26:54;;;;;;;9.77;3.20;;;;;;;11.19;100.00;102083.09;5028590;28;20167;-64
2023/10/06 01:29:26;;;;;;;6.07;2.90;;;;;;;11.16;100.00;102084.78;5020943;28;20036;-63
2023/10/06 01:31:51;;;;;;;8.55;3.40;;;;;;;11.12;100.00;102091.66;5021569;28;20806;-64
2023/10/06 01:34:18;;;;;;;5.15;3.42;;;;;;;11.08;100.00;102095.06;5013657;28;20049;-64
2023/10/06 01:36:45;;;;;;;6.05;3.17;;;;;;;11.05;100.00;102087.25;5020872;28;20516;-63
2023/10/06 01:39:17;;;;;;;7.90;3.22;;;;;;;11.03;100.00;102081.22;5027063;28;20041;-60
2023/10/06 01:41:46;;;;;;;6.55;3.22;;;;;;;11.05;100.00;102082.09;5026255;28;20033;-60
2023/10/06 01:44:13;;;;;;;11.18;3.72;;;;;;;11.05;100.00;102081.22;5023154;28;20038;-63
2023/10/06 01:46:39;;;;;;;7.00;3.10;;;;;;;11.05;100.00;102076.03;5023899;28;20041;-64
2023/10/06 01:49:10;;;;;;;8.50;3.50;;;;;;;11.05;100.00;102076.03;5029229;28;20072;-63
2023/10/06 01:51:38;;;;;;;10.13;3.85;;;;;;;11.04;100.00;102077.75;5021734;28;20487;-63
2023/10/06 01:54:05;;;;;;;7.68;3.35;;;;;;;11.04;100.00;102067.41;5023281;28;20037;-63
2023/10/06 01:56:31;;;;;;;7.95;3.70;;;;;;;11.04;100.00;102061.38;5020476;28;20071;-63
2023/10/06 01:58:58;;;;;;;7.75;3.40;;;;;;;11.05;100.00;102065.69;5028833;28;20555;-63
2023/10/06 02:01:23;;;;;;;11.45;4.10;;;;;;;11.07;100.00;102064.84;5026043;28;20500;-63
2023/10/06 02:03:48;;;;;;;7.68;3.70;;;;;;;11.11;100.00;102066.63;5024121;28;20041;-68
2023/10/06 02:06:15;;;;;;;7.32;3.47;;;;;;;11.10;100.00;102064.03;5025569;28;20061;-68
2023/10/06 02:08:43;;;;;;;5.55;3.17;;;;;;;11.12;100.00;102064.91;5023091;28;20033;-69
2023/10/06 02:11:09;;;;;;;7.35;3.67;;;;;;;11.11;100.00;102060.59;5023013;28;20087;-68
2023/10/06 02:13:35;;;;;;;5.72;2.83;;;;;;;11.11;100.00;102053.69;5025980;28;20053;-69
2023/10/06 02:16:01;;;;;;;8.85;4.53;;;;;;;11.12;100.00;102047.69;5030377;28;20044;-69
2023/10/06 02:18:36;;;;;;;8.68;4.10;;;;;;;11.09;100.00;102052.81;5026527;28;20057;-68
2023/10/06 02:21:09;;;;;;;6.43;3.55;;;;;;;11.08;100.00;102051.06;5026509;28;20017;-69
2023/10/06 02:23:37;;;;;;;9.68;4.55;;;;;;;11.09;100.00;102054.53;5025920;28;20037;-69
2023/10/06 02:26:08;;;;;;;13.98;4.32;;;;;;;11.11;100.00;102064.03;5018012;28;20145;-69
2023/10/06 02:28:34;;;;;;;6.35;3.40;;;;;;;11.09;100.00;102068.34;5022121;28;20071;-68
2023/10/06 02:31:04;;;;;;;9.68;3.47;;;;;;;11.09;100.00;102070.06;5029440;28;20033;-68
2023/10/06 02:33:30;;;;;;;8.80;3.60;;;;;;;11.09;100.00;102070.06;5026523;28;20599;-68
2023/10/06 02:35:59;;;;;;;5.53;3.03;;;;;;;11.11;100.00;102071.81;5023753;28;20029;-69
2023/10/06 02:38:34;;;;;;;8.05;3.17;;;;;;;11.15;100.00;102062.34;5023606;28;20041;-68
2023/10/06 02:41:00;;;;;;;14.77;4.28;;;;;;;11.16;100.00;102064.94;5018502;28;20034;-68
2023/10/06 02:43:27;;;;;;;8.85;3.65;;;;;;;11.17;100.00;102064.09;5031296;28;20041;-69
2023/10/06 02:45:53;;;;;;;6.45;3.10;;;;;;;11.17;100.00;102061.50;5018787;28;20036;-69
2023/10/06 02:48:22;;;;;;;6.10;3.08;;;;;;;11.18;100.00;102059.81;5024267;28;20423;-68
2023/10/06 02:50:50;;;;;;;7.60;3.22;;;;;;;11.17;100.00;102058.94;5021928;28;20033;-68
2023/10/06 02:53:20;;;;;;;9.15;3.13;;;;;;;11.17;100.00;102053.75;5022584;28;20658;-68
2023/10/06 02:55:49;;;;;;;7.03;3.05;;;;;;;11.15;100.00;102052.88;5021189;28;20040;-71
2023/10/06 02:58:30;;;;;;;7.32;2.90;;;;;;;11.16;100.00;102053.72;5028276;28;20041;-69
2023/10/06 03:00:55;;;;;;;6.85;3.38;;;;;;;11.12;100.00;102052.84;5015955;28;20084;-70
2023/10/06 03:03:26;;;;;;;7.15;3.03;;;;;;;11.11;100.00;102048.53;5026603;28;20039;-68
2023/10/06 03:05:53;;;;;;;7.50;3.35;;;;;;;11.09;100.00;102051.94;5020453;28;20033;-69
2023/10/06 03:08:24;;;;;;;8.48;3.17;;;;;;;11.07;100.00;102053.66;5027939;28;20037;-69
2023/10/06 03:10:49;;;;;;;7.65;3.90;;;;;;;10.98;100.00;102046.66;5029311;28;20037;-60
2023/10/06 03:13:22;;;;;;;7.90;3.50;;;;;;;10.96;100.00;102053.53;5023142;28;20052;-60
2023/10/06 03:15:47;;;;;;;5.85;3.25;;;;;;;10.92;100.00;102044.00;5023060;28;20041;-60
2023/10/06 03:18:15;;;;;;;8.38;4.00;;;;;;;10.89;100.00;102043.97;5022026;28;20569;-60
2023/10/06 03:20:49;;;;;;;9.35;3.95;;;;;;;10.84;100.00;102043.06;5026528;28;20041;-69
2023/10/06 03:26:04;;;;;;;17.33;3.85;;;;;;;10.78;100.00;102048.16;5018616;28;20071;-69
2023/10/06 03:28:36;;;;;;;6.25;3.65;;;;;;;10.78;100.00;102066.25;5025587;28;20335;-69
2023/10/06 03:31:21;;;;;;;7.22;3.45;;;;;;;10.73;100.00;102073.97;5023351;28;20036;-68
2023/10/06 03:33:47;;;;;;;7.57;3.67;;;;;;;10.70;100.00;102076.53;5020157;28;20056;-69
2023/10/06 03:36:16;;;;;;;8.02;4.63;;;;;;;10.68;100.00;102069.59;5022555;28;20033;-69
2023/10/06 03:39:06;;;;;;;10.77;3.25;;;;;;;10.65;100.00;102069.56;5024640;28;20062;-62
2023/10/06 03:41:32;;;;;;;9.40;3.65;;;;;;;10.63;100.00;102064.38;5025506;28;20042;-63
2023/10/06 03:44:03;;;;;;;7.97;3.63;;;;;;;10.65;100.00;102060.06;5024395;28;20056;-60
2023/10/06 03:46:35;;;;;;;8.30;3.65;;;;;;;10.72;100.00;102063.59;5022310;28;20038;-60
2023/10/06 03:49:03;;;;;;;7.55;3.20;;;;;;;10.75;100.00;102061.94;5024530;28;20148;-60
2023/10/06 03:51:29;;;;;;;7.53;3.35;;;;;;;10.79;100.00;102063.72;5030367;28;21035;-60
2023/10/06 03:53:56;;;;;;;9.57;3.90;;;;;;;10.84;100.00;102061.16;5020295;28;20460;-59
2023/10/06 03:56:22;;;;;;;6.63;3.10;;;;;;;10.87;100.00;102068.94;5023343;28;20111;-60
2023/10/06 03:58:48;;;;;;;7.20;3.50;;;;;;;10.88;100.00;102064.66;5021834;28;20030;-60
2023/10/06 04:01:26;;;;;;;5.63;3.05;;;;;;;10.89;100.00;102067.25;5022650;28;20041;-60
2023/10/06 04:03:53;;;;;;;10.07;3.60;;;;;;;10.89;100.00;102063.81;5021966;28;20841;-60
2023/10/06 04:06:19;;;;;;;6.35;3.38;;;;;;;10.88;100.00;102057.78;5025291;28;20091;-60
2023/10/06 04:08:46;;;;;;;5.82;3.70;;;;;;;10.88;100.00;102064.66;5025993;28;20035;-60
2023/10/06 04:11:15;;;;;;;10.05;3.75;;;;;;;10.87;100.00;102063.78;5022092;28;20661;-60
2023/10/06 04:13:41;;;;;;;6.22;3.55;;;;;;;10.87;100.00;102065.50;5030697;28;20052;-60
2023/10/06 04:16:06;;;;;;;8.93;4.50;;;;;;;10.88;100.00;102059.47;5021055;28;20034;-60
2023/10/06 04:18:32;;;;;;;10.63;4.28;;;;;;;10.87;100.00;102048.25;5025126;28;20756;-60
2023/10/06 04:20:58;;;;;;;5.82;3.40;;;;;;;10.88;100.00;102054.31;5021579;28;20037;-60
2023/10/06 04:23:25;;;;;;;9.23;4.20;;;;;;;10.89;100.00;102054.31;5023932;28;20111;-61
2023/10/06 04:25:55;;;;;;;8.30;4.07;;;;;;;10.92;100.00;102058.69;5015313;28;20523;-60
2023/10/06 04:28:23;;;;;;;10.93;4.20;;;;;;;10.92;100.00;102061.25;5022036;28;20034;-60
2023/10/06 04:30:49;;;;;;;8.60;3.85;;;;;;;10.95;100.00;102063.88;5019991;28;20616;-69
2023/10/06 04:33:15;;;;;;;8.52;3.78;;;;;;;10.92;100.00;102064.69;5022230;28;20057;-68
2023/10/06 04:35:51;;;;;;;8.65;4.30;;;;;;;10.93;100.00;102062.97;5024218;28;20620;-69
2023/10/06 04:38:19;;;;;;;10.07;4.35;;;;;;;10.91;100.00;102062.97;5021693;28;20035;-68
2023/10/06 04:40:46;;;;;;;11.18;4.72;;;;;;;10.91;100.00;102064.69;5028218;28;20114;-68
2023/10/06 04:43:13;;;;;;;11.10;4.07;;;;;;;10.89;100.00;102056.91;5022624;28;20501;-68
2023/10/06 04:45:38;;;;;;;6.65;4.03;;;;;;;10.89;100.00;102056.06;5023154;28;20068;-68
2023/10/06 04:48:07;;;;;;;10.70;4.25;;;;;;;10.89;100.00;102050.88;5021613;28;20150;-68
2023/10/06 04:50:34;;;;;;;7.30;3.60;;;;;;;10.87;100.00;102035.31;5021178;28;20036;-69
2023/10/06 04:53:00;;;;;;;9.95;3.80;;;;;;;10.89;100.00;102037.94;5026375;28;20037;-69
2023/10/06 04:55:26;;;;;;;7.75;4.18;;;;;;;10.87;100.00;102035.31;5021659;28;20153;-69
2023/10/06 04:57:51;;;;;;;7.32;4.10;;;;;;;10.88;100.00;102037.06;5020479;28;20581;-64
2023/10/06 05:00:20;;;;;;;9.50;4.43;;;;;;;10.86;100.00;102035.31;5020657;28;20028;-63
2023/10/06 05:02:47;;;;;;;10.43;4.60;;;;;;;10.85;100.00;102028.41;5022144;28;20076;-63
2023/10/06 05:05:14;;;;;;;9.18;4.18;;;;;;;10.83;100.00;102014.59;5021901;28;20044;-64
2023/10/06 05:07:39;;;;;;;10.27;4.18;;;;;;;10.81;100.00;102022.31;5021077;28;20148;-65
2023/10/06 05:10:08;;;;;;;8.85;3.92;;;;;;;10.81;100.00;102019.75;5017876;28;20034;-64
2023/10/06 05:12:42;;;;;;;9.55;4.10;;;;;;;10.78;100.00;102019.72;5013251;28;20508;-63
2023/10/06 05:15:08;;;;;;;10.30;4.25;;;;;;;10.79;100.00;102014.56;5019488;28;20040;-63
2023/10/06 05:17:34;;;;;;;6.82;4.10;;;;;;;10.77;100.00;102018.00;5017073;28;20029;-64
2023/10/06 05:20:00;;;;;;;7.10;3.50;;;;;;;10.72;100.00;102020.50;5016027;28;20148;-63
2023/10/06 05:22:26;;;;;;;10.13;4.68;;;;;;;10.70;100.00;102013.59;5016340;28;20048;-63
2023/10/06 05:24:51;;;;;;;7.88;4.00;;;;;;;10.69;100.00;102024.78;5013353;28;20041;-64
2023/10/06 05:27:19;;;;;;;12.80;4.97;;;;;;;10.67;100.00;102017.03;5016783;28;20781;-63
2023/10/06 05:29:45;;;;;;;6.93;4.13;;;;;;;10.68;100.00;102020.47;5020303;28;20029;-63
2023/10/06 05:32:11;;;;;;;9.75;4.65;;;;;;;10.67;100.00;102022.19;5018977;28;20043;-64
2023/10/06 05:34:40;;;;;;;13.93;4.78;;;;;;;10.67;100.00;102021.31;5018739;28;20041;-64
2023/10/06 05:37:08;;;;;;;10.60;5.13;;;;;;;10.69;100.00;102023.06;5019028;28;20090;-64
2023/10/06 05:39:33;;;;;;;12.27;5.35;;;;;;;10.70;100.00;102021.34;5031963;28;20701;-63
2023/10/06 05:41:59;;;;;;;10.82;4.90;;;;;;;10.72;100.00;102020.50;5024089;28;20044;-64
2023/10/06 05:44:24;;;;;;;8.52;4.80;;;;;;;10.73;100.00;102016.22;5019014;28;20045;-64
2023/10/06 05:46:50;;;;;;;16.10;5.53;;;;;;;10.73;100.00;102014.50;5021641;28;20145;-60
2023/10/06 05:49:21;;;;;;;10.65;5.32;;;;;;;10.73;100.00;102014.50;5023384;28;20582;-60
2023/10/06 05:52:16;;;;;;;9.18;5.40;;;;;;;10.75;100.00;102023.13;5032018;28;21242;-59
2023/10/06 05:54:42;;;;;;;8.65;4.75;;;;;;;10.77;100.00;102028.34;5012971;28;20065;-61
2023/10/06 05:57:09;;;;;;;9.88;4.45;;;;;;;10.79;100.00;102022.31;5007519;28;20083;-60
2023/10/06 05:59:36;;;;;;;9.02;4.55;;;;;;;10.80;100.00;102013.69;5007328;28;20519;-60
2023/10/06 06:02:04;;;;;;;8.45;5.40;;;;;;;10.85;100.00;102020.66;5006778;28;20560;-61
2023/10/06 06:04:30;;;;;;;13.93;4.97;;;;;;;10.88;100.00;102020.69;5007494;28;20124;-61
2023/10/06 06:06:57;;;;;;;14.90;6.88;;;;;;;10.91;100.00;102020.72;5009474;28;20405;-61
2023/10/06 06:09:27;;;;;;;12.05;5.70;;;;;;;10.97;100.00;102021.66;5009251;28;20946;-61
2023/10/06 06:11:52;;;;;;;16.35;5.70;;;;;;;11.03;100.00;102024.28;5011260;28;20055;-61
2023/10/06 06:14:21;;;;;;;9.80;5.43;;;;;;;11.06;100.00;102034.69;5004158;28;20046;-60
2023/10/06 06:16:50;;;;;;;13.13;5.80;;;;;;;11.11;100.00;102035.56;5021246;28;20049;-60
2023/10/06 06:19:17;;;;;;;10.38;5.25;;;;;;;11.15;100.00;102036.47;5022978;28;20423;-61
2023/10/06 06:21:42;;;;;;;8.82;5.40;;;;;;;11.17;100.00;102040.81;5011721;28;20037;-61
2023/10/06 06:24:08;;;;;;;11.15;5.60;;;;;;;11.19;100.00;102041.69;5011902;28;20115;-63
2023/10/06 06:26:37;;;;;;;14.25;5.45;;;;;;;11.23;100.00;102043.47;5013163;28;20033;-63
2023/10/06 06:29:08;;;;;;;8.18;4.68;;;;;;;11.27;100.00;102039.19;5009391;28;20121;-63
2023/10/06 06:31:34;;;;;;;11.25;4.78;;;;;;;11.31;100.00;102046.97;5018970;28;20041;-63
2023/10/06 06:34:05;;;;;;;10.10;5.15;;;;;;;11.35;100.00;102050.47;5022694;28;20783;-63
2023/10/06 06:36:31;;;;;;;9.55;4.68;;;;;;;11.42;100.00;102041.91;5032329;28;20041;-63
2023/10/06 06:39:00;;;;;;;8.88;5.40;;;;;;;11.45;100.00;102051.47;5032591;28;20032;-63
2023/10/06 06:41:26;;;;;;;7.30;4.20;;;;;;;11.48;100.00;102052.34;5035061;28;20041;-63
2023/10/06 06:43:58;;;;;;;10.70;5.18;;;;;;;11.50;100.00;102058.41;5033068;28;20068;-63
2023/10/06 06:46:26;;;;;;;9.75;5.05;;;;;;;11.54;100.00;102056.72;5033041;28;20108;-63
2023/10/06 06:48:52;;;;;;;10.40;4.43;;;;;;;11.58;100.00;102054.16;5029390;28;20026;-63
2023/10/06 06:51:18;;;;;;;13.75;4.80;;;;;;;11.62;100.00;102058.50;5030021;28;20554;-63
2023/10/06 06:53:45;;;;;;;9.52;4.60;;;;;;;11.66;100.00;102065.44;5033066;28;20046;-64
2023/10/06 06:56:11;;;;;;;6.45;3.75;;;;;;;11.70;100.00;102072.38;5027150;28;20060;-63
2023/10/06 06:58:37;;;;;;;7.43;3.80;;;;;;;11.78;100.00;102075.03;5028607;28;20507;-63
2023/10/06 07:01:05;;;;;;;8.48;4.70;;;;;;;11.84;100.00;102075.94;5025336;28;20041;-64
2023/10/06 07:03:31;;;;;;;10.65;5.20;;;;;;;11.94;100.00;102073.41;5014818;28;20048;-65
2023/10/06 07:05:56;;;;;;;9.50;5.07;;;;;;;12.03;100.00;102079.53;5019330;28;20064;-64
2023/10/06 07:08:22;;;;;;;9.00;5.18;;;;;;;12.13;100.00;102083.91;5023339;28;20760;-64
2023/10/06 07:10:52;;;;;;;10.50;5.07;;;;;;;12.25;100.00;102085.72;5018605;28;20385;-64
2023/10/06 07:13:17;;;;;;;7.45;4.25;;;;;;;12.33;100.00;102074.53;5020970;28;20038;-64
2023/10/06 07:15:43;;;;;;;9.55;4.78;;;;;;;12.44;100.00;102066.78;5020647;28;20124;-63
2023/10/06 07:18:10;;;;;;;11.07;4.53;;;;;;;12.57;100.00;102068.59;5016875;28;20041;-64
2023/10/06 07:20:35;;;;;;;12.15;4.88;;;;;;;12.70;99.27;102070.34;5016543;28;20025;-63
2023/10/06 07:23:01;;;;;;;8.70;4.60;;;;;;;12.82;98.13;102074.75;5018432;28;20059;-66
2023/10/06 07:25:27;;;;;;;8.38;4.38;;;;;;;12.93;97.73;102080.81;5021446;28;20446;-63
2023/10/06 07:27:55;;;;;;;8.25;4.05;;;;;;;13.03;96.87;102074.81;5019340;28;20523;-63
2023/10/06 07:30:22;;;;;;;8.23;4.00;;;;;;;13.15;96.63;102077.44;5015550;28;20034;-63
2023/10/06 07:32:50;;;;;;;7.07;3.72;;;;;;;13.27;95.55;102077.47;5016476;28;20057;-63
2023/10/06 07:35:17;;;;;;;10.90;4.78;;;;;;;13.40;95.12;102075.75;5017394;28;20050;-64
2023/10/06 07:37:49;;;;;;;12.70;4.28;;;;;;;13.51;94.91;102076.63;5018941;28;20037;-61
2023/10/06 07:40:18;;;;;;;5.68;3.60;;;;;;;13.62;93.43;102081.84;5013473;28;20132;-62
2023/10/06 07:42:55;;;;;;;10.75;3.92;;;;;;;13.71;93.19;102068.84;5012439;28;20045;-61
2023/10/06 07:45:20;;;;;;;6.70;4.55;;;;;;;13.80;92.53;102061.88;4999366;28;20915;-61
2023/10/06 07:47:46;;;;;;;6.25;3.85;;;;;;;13.85;91.69;102060.16;4998539;28;20042;-62
2023/10/06 07:50:14;;;;;;;7.40;4.05;;;;;;;13.96;91.25;102057.53;4998914;28;20038;-61
2023/10/06 07:52:41;;;;;;;9.98;3.72;;;;;;;14.03;90.10;102056.69;4995275;28;20042;-62
2023/10/06 07:55:09;;;;;;;11.25;3.53;;;;;;;14.14;89.67;102052.31;4998020;28;20045;-59
2023/10/06 07:57:36;;;;;;;8.00;3.55;;;;;;;14.21;89.24;102058.38;4987837;28;20038;-59
2023/10/06 08:00:09;;;;;;;8.60;3.80;;;;;;;14.30;89.29;102055.75;4989960;28;20186;-59
2023/10/06 08:02:36;;;;;;;8.10;3.45;;;;;;;14.40;89.36;102058.31;5013401;28;20044;-59
2023/10/06 08:05:02;;;;;;;6.40;3.53;;;;;;;14.43;88.44;102047.03;4990198;28;20037;-59
2023/10/06 08:07:27;;;;;;;6.65;3.40;;;;;;;14.51;88.91;102056.53;4998330;28;20034;-59
2023/10/06 08:10:00;;;;;;;8.73;4.18;;;;;;;14.51;88.37;102051.34;4999518;28;20618;-59
2023/10/06 08:12:27;;;;;;;9.75;3.47;;;;;;;14.57;87.98;102042.66;4997394;28;20057;-59
2023/10/06 08:14:52;;;;;;;6.93;3.60;;;;;;;14.61;87.82;102041.75;4998463;28;20065;-59
2023/10/06 08:17:19;;;;;;;9.38;3.45;;;;;;;14.67;87.29;102044.34;4995036;28;20655;-59
2023/10/06 08:19:46;;;;;;;9.43;3.50;;;;;;;14.75;87.50;102049.53;4994959;28;20042;-59
2023/10/06 08:22:12;;;;;;;6.85;3.17;;;;;;;14.82;87.16;102049.47;4999185;28;20117;-59
2023/10/06 08:24:38;;;;;;;8.80;3.58;;;;;;;14.94;87.17;102044.19;4994906;28;20042;-59
2023/10/06 08:27:03;;;;;;;10.77;3.45;;;;;;;15.07;85.42;102034.56;4998100;28;20037;-60
2023/10/06 08:29:30;;;;;;;5.97;2.88;;;;;;;15.16;85.90;102045.81;4998979;28;20026;-59
2023/10/06 08:31:55;;;;;;;5.32;3.25;;;;;;;15.19;85.87;102042.31;4997458;28;20045;-59
2023/10/06 08:34:21;;;;;;;7.53;3.35;;;;;;;15.19;85.94;102040.56;4995624;28;20041;-59
2023/10/06 08:36:48;;;;;;;7.90;2.70;;;;;;;15.14;84.93;102031.03;4997425;28;20040;-59
2023/10/06 08:39:14;;;;;;;7.35;2.95;;;;;;;15.09;85.37;102041.50;4998612;28;20029;-59
2023/10/06 08:41:44;;;;;;;8.05;2.60;;;;;;;15.04;86.06;102034.59;4990002;28;20037;-59
2023/10/06 08:44:12;;;;;;;11.45;3.00;;;;;;;14.95;85.70;102040.72;4996255;28;20474;-58
2023/10/06 08:46:44;;;;;;;7.10;3.33;;;;;;;14.90;85.95;102032.06;4998644;28;20038;-59
2023/10/06 08:49:10;;;;;;;6.20;2.72;;;;;;;14.90;85.87;102034.66;5006462;28;21049;-60
2023/10/06 08:51:36;;;;;;;10.15;3.40;;;;;;;14.94;86.17;102027.69;5010093;28;20042;-59
2023/10/06 08:54:05;;;;;;;8.27;3.03;;;;;;;15.03;86.58;102032.84;4996285;28;20030;-59
2023/10/06 08:56:33;;;;;;;10.55;3.17;;;;;;;15.16;85.35;102024.97;4992542;28;20076;-60
2023/10/06 08:58:59;;;;;;;6.95;2.97;;;;;;;15.29;86.27;102024.84;5008816;28;20038;-60
2023/10/06 09:01:28;;;;;;;8.02;3.30;;;;;;;15.39;84.77;102014.34;5011183;28;20088;-60
2023/10/06 09:03:55;;;;;;;8.98;3.13;;;;;;;15.49;84.57;102015.16;5007565;28;20044;-60
2023/10/06 09:06:20;;;;;;;7.80;2.90;;;;;;;15.56;83.54;102011.59;5010080;28;20857;-60
2023/10/06 09:08:46;;;;;;;6.10;2.70;;;;;;;15.56;83.95;102022.88;4992975;28;20041;-60
2023/10/06 09:11:11;;;;;;;6.82;3.15;;;;;;;15.51;83.70;102018.59;4996768;28;20046;-60
2023/10/06 09:13:37;;;;;;;9.07;2.95;;;;;;;15.52;84.03;102021.19;4995495;28;20045;-60
2023/10/06 09:16:07;;;;;;;6.85;3.20;;;;;;;15.55;83.93;102015.94;4998505;28;20038;-60
2023/10/06 09:18:39;;;;;;;10.25;3.45;;;;;;;15.60;84.86;102019.38;4997787;28;20113;-60
2023/10/06 09:21:25;;;;;;;8.10;3.50;;;;;;;15.71;83.90;102022.78;4996686;28;20474;-61
2023/10/06 09:23:52;;;;;;;5.78;2.75;;;;;;;15.79;84.02;102014.03;4995035;28;20548;-60
2023/10/06 09:26:31;;;;;;;6.82;2.83;;;;;;;15.83;83.71;102000.94;4996233;28;20045;-60
2023/10/06 09:29:01;;;;;;;7.57;2.63;;;;;;;15.95;83.52;102005.16;4998063;28;20038;-60
2023/10/06 09:31:44;;;;;;;4.57;2.60;;;;;;;16.09;82.94;102001.50;4997463;28;20076;-60
2023/10/06 09:34:11;;;;;;;7.65;3.10;;;;;;;16.23;80.83;101976.16;4986466;28;20061;-60
2023/10/06 09:36:38;;;;;;;8.88;3.00;;;;;;;16.32;80.95;101978.63;4996074;28;20042;-60
2023/10/06 09:39:13;;;;;;;7.00;2.80;;;;;;;16.44;80.40;101972.41;4995944;28;20033;-61
2023/10/06 09:41:39;;;;;;;6.80;3.08;;;;;;;16.49;81.02;101981.03;4997036;28;20149;-60
2023/10/06 09:44:09;;;;;;;6.07;2.67;;;;;;;16.59;80.94;101977.38;4995208;28;20049;-60
2023/10/06 09:46:34;;;;;;;6.22;2.65;;;;;;;16.67;80.63;101978.16;4997251;28;20161;-60
2023/10/06 09:49:05;;;;;;;8.55;2.50;;;;;;;16.80;79.05;101963.22;4997048;28;20132;-60
2023/10/06 09:51:32;;;;;;;6.57;2.80;;;;;;;16.97;77.47;101950.78;4997810;28;20107;-60
2023/10/06 09:53:58;;;;;;;7.30;2.75;;;;;;;17.11;76.67;101946.19;4996604;28;20026;-60
2023/10/06 09:56:24;;;;;;;7.78;2.72;;;;;;;17.21;74.99;101912.94;4996635;28;20073;-61
2023/10/06 09:58:51;;;;;;;7.07;2.83;;;;;;;17.35;74.14;101911.78;4997166;28;20168;-60
2023/10/06 10:01:17;;;;;;;8.07;2.50;;;;;;;17.41;72.86;101897.75;4997175;28;20543;-60
2023/10/06 10:03:43;;;;;;;5.00;2.13;;;;;;;17.51;71.68;101880.16;4994415;28;20085;-60
2023/10/06 10:06:10;;;;;;;5.97;2.28;;;;;;;17.63;70.88;101870.28;4994888;28;20033;-60
2023/10/06 10:08:36;;;;;;;7.03;2.70;;;;;;;17.71;70.46;101864.91;4991781;28;20034;-60
2023/10/06 10:11:14;;;;;;;5.60;2.13;;;;;;;17.84;69.79;101862.03;4997511;28;20041;-60
2023/10/06 10:14:02;;;;;;;6.72;2.40;;;;;;;17.96;69.53;101858.31;4994968;28;20030;-60
2023/10/06 10:16:48;;;;;;;5.20;2.17;;;;;;;18.09;68.89;101857.16;4995543;28;20111;-60
2023/10/06 10:19:18;;;;;;;5.95;2.25;;;;;;;18.24;68.06;101855.97;4995023;28;20088;-60
2023/10/06 10:21:44;;;;;;;5.85;2.35;;;;;;;18.33;65.12;101804.25;4997290;28;20794;-60
2023/10/06 10:24:13;;;;;;;5.65;2.50;;;;;;;18.42;65.08;101811.03;4994984;28;20047;-61
2023/10/06 10:26:39;;;;;;;6.65;2.33;;;;;;;18.50;64.32;101785.50;4996166;28;20115;-60
2023/10/06 10:29:16;;;;;;;6.95;2.78;;;;;;;18.53;64.93;101809.00;4995344;28;20034;-60
2023/10/06 10:31:47;;;;;;;5.28;2.17;;;;;;;18.46;65.22;101816.13;5004526;28;20814;-68
2023/10/06 10:34:23;;;;;;;7.00;2.20;;;;;;;18.54;64.14;101795.03;5007245;28;20061;-68
2023/10/06 10:37:08;;;;;;;5.85;2.35;;;;;;;18.68;62.77;101768.47;4996477;28;20044;-68
2023/10/06 10:39:55;;;;;;;6.85;2.45;;;;;;;18.67;63.58;101793.81;4999510;28;20079;-68
2023/10/06 10:42:36;;;;;;;5.70;1.92;;;;;;;18.55;64.58;101809.84;4995282;28;20117;-68
2023/10/06 10:45:28;;;;;;;4.45;2.10;;;;;;;18.55;63.81;101798.50;4999729;28;20452;-69
2023/10/06 10:47:55;;;;;;;6.18;2.13;;;;;;;18.61;64.34;101804.44;5018484;28;20081;-68
2023/10/06 10:50:25;;;;;;;5.32;2.00;;;;;;;18.74;62.56;101770.94;5015687;28;20812;-68
2023/10/06 10:52:53;;;;;;;6.72;2.53;;;;;;;18.81;62.93;101777.75;5003122;28;20183;-68
2023/10/06 10:55:23;;;;;;;6.00;2.78;;;;;;;18.90;62.68;101774.94;5005211;28;20053;-68
2023/10/06 10:57:50;;;;;;;6.53;2.47;;;;;;;18.92;61.16;101750.41;5016860;28;20872;-67
2023/10/06 11:00:20;;;;;;;4.68;2.40;;;;;;;18.97;61.91;101760.75;5015134;28;20471;-67
2023/10/06 11:02:48;;;;;;;5.15;2.20;;;;;;;19.03;62.92;101781.53;5011516;28;20036;-68
2023/10/06 11:05:18;;;;;;;7.18;2.10;;;;;;;19.09;61.39;101749.91;5012175;28;20041;-68
2023/10/06 11:07:56;;;;;;;7.03;2.42;;;;;;;19.14;60.77;101740.19;5004989;28;20035;-68
2023/10/06 11:10:23;;;;;;;7.53;2.33;;;;;;;19.23;61.30;101744.31;4999441;28;20048;-68
2023/10/06 11:12:50;;;;;;;7.57;3.13;;;;;;;19.28;61.39;101745.91;4999150;28;20042;-69
2023/10/06 11:15:28;;;;;;;6.45;2.00;;;;;;;19.36;59.96;101712.44;4999596;28;20334;-67
2023/10/06 11:17:58;;;;;;;4.63;1.95;;;;;;;19.42;59.42;101708.78;4998231;28;20060;-63
2023/10/06 11:20:27;;;;;;;9.40;2.60;;;;;;;19.49;59.31;101712.94;4999356;28;20069;-63
2023/10/06 11:22:59;;;;;;;8.13;2.38;;;;;;;19.56;59.42;101709.25;4999061;28;20042;-63
2023/10/06 11:25:28;;;;;;;6.55;2.33;;;;;;;19.61;58.46;101686.34;4998322;28;20090;-63
2023/10/06 11:28:03;;;;;;;3.90;1.75;;;;;;;19.70;59.18;101695.69;4999797;28;20149;-63
2023/10/06 11:30:31;;;;;;;5.93;1.85;;;;;;;19.71;57.99;101672.03;4993423;28;20046;-62